createdAt,value
2023-06-19T00:01:38.844Z,100807.25
2023-06-19T00:04:05.410Z,100801.09
2023-06-19T00:06:31.901Z,100809.41
2023-06-19T00:08:58.398Z,100807.88
2023-06-19T00:11:24.921Z,100812.38
2023-06-19T00:13:51.690Z,100812.56
2023-06-19T00:16:19.069Z,100805.56
2023-06-19T00:18:45.760Z,100810.88
2023-06-19T00:21:12.410Z,100805.75
2023-06-19T00:23:39.162Z,100808.53
2023-06-19T00:26:05.655Z,100803.41
2023-06-19T00:28:32.432Z,100808.38
2023-06-19T00:30:59.134Z,100804.88
2023-06-19T00:33:25.635Z,100807.53
2023-06-19T00:35:52.808Z,100817.50
2023-06-19T00:38:19.331Z,100812.34
2023-06-19T00:40:45.812Z,100817.84
2023-06-19T00:43:12.366Z,100819.31
2023-06-19T00:45:39.868Z,100824.78
2023-06-19T00:48:06.786Z,100830.25
2023-06-19T00:50:33.806Z,100833.22
2023-06-19T00:53:03.588Z,100838.03
2023-06-19T00:55:33.740Z,100840.19
2023-06-19T00:58:02.060Z,100830.69
2023-06-19T01:00:28.616Z,100837.34
2023-06-19T01:02:55.312Z,100823.72
2023-06-19T01:05:22.244Z,100835.63
2023-06-19T01:08:01.359Z,100842.44
2023-06-19T01:10:37.675Z,100840.88
2023-06-19T01:13:11.763Z,100841.38
2023-06-19T01:15:41.735Z,100847.97
2023-06-19T01:18:09.069Z,100857.25
2023-06-19T01:20:35.993Z,100852.41
2023-06-19T01:23:10.103Z,100854.69
2023-06-19T01:25:36.982Z,100858.50
2023-06-19T01:28:06.792Z,100861.50
2023-06-19T01:30:35.323Z,100874.19
2023-06-19T01:33:10.407Z,100879.16
2023-06-19T01:35:39.685Z,100877.00
2023-06-19T01:38:07.431Z,100874.78
2023-06-19T01:40:35.371Z,100876.25
2023-06-19T01:43:03.200Z,100879.34
2023-06-19T01:45:30.782Z,100884.31
2023-06-19T01:47:58.033Z,100892.03
2023-06-19T01:50:25.579Z,100893.78
2023-06-19T01:52:53.057Z,100887.78
2023-06-19T01:55:20.026Z,100878.44
2023-06-19T01:57:49.477Z,100888.22
2023-06-19T02:00:16.323Z,100895.34
2023-06-19T02:02:42.927Z,100888.53
2023-06-19T02:05:09.630Z,100890.34
2023-06-19T02:07:36.244Z,100897.59
2023-06-19T02:10:02.893Z,100902.25
2023-06-19T02:12:30.317Z,100897.25
2023-06-19T02:14:57.168Z,100895.13
2023-06-19T02:17:23.686Z,100901.53
2023-06-19T02:19:50.175Z,100897.25
2023-06-19T02:22:19.131Z,100902.38
2023-06-19T02:24:45.829Z,100895.25
2023-06-19T02:27:12.354Z,100903.38
2023-06-19T02:29:38.842Z,100908.84
2023-06-19T02:32:05.716Z,100905.31
2023-06-19T02:34:32.250Z,100908.66
2023-06-19T02:36:58.718Z,100910.19
2023-06-19T02:39:25.485Z,100909.38
2023-06-19T02:41:52.104Z,100916.63
2023-06-19T02:44:18.745Z,100903.53
2023-06-19T02:46:45.240Z,100904.66
2023-06-19T02:49:11.707Z,100914.44
2023-06-19T02:51:39.429Z,100920.69
2023-06-19T02:54:07.952Z,100927.81
2023-06-19T02:56:34.488Z,100930.47
2023-06-19T02:59:01.068Z,100927.00
2023-06-19T03:01:27.946Z,100928.94
2023-06-19T03:03:54.397Z,100935.22
2023-06-19T03:06:20.939Z,100936.22
2023-06-19T03:08:47.494Z,100932.06
2023-06-19T03:11:14.220Z,100939.88
2023-06-19T03:13:52.090Z,100932.06
2023-06-19T03:16:19.148Z,100930.69
2023-06-19T03:18:46.158Z,100925.41
2023-06-19T03:21:14.034Z,100928.03
2023-06-19T03:23:42.355Z,100934.00
2023-06-19T03:26:09.705Z,100928.03
2023-06-19T03:28:36.163Z,100931.00
2023-06-19T03:31:02.787Z,100928.47
2023-06-19T03:33:29.298Z,100936.59
2023-06-19T03:35:56.503Z,100936.75
2023-06-19T03:38:23.000Z,100945.81
2023-06-19T03:40:49.485Z,100945.81
2023-06-19T03:43:16.003Z,100940.00
2023-06-19T03:45:42.517Z,100958.38
2023-06-19T03:48:09.270Z,100958.38
2023-06-19T03:50:36.064Z,100963.81
2023-06-19T03:53:02.709Z,100970.25
2023-06-19T03:55:29.277Z,100972.19
2023-06-19T03:57:55.746Z,100974.75
2023-06-19T04:00:22.718Z,100974.22
2023-06-19T04:02:49.595Z,100983.16
2023-06-19T04:05:16.750Z,100986.09
2023-06-19T04:07:43.456Z,100988.88
2023-06-19T04:10:11.041Z,100986.38
2023-06-19T04:12:37.503Z,100975.25
2023-06-19T04:15:05.055Z,100987.34
2023-06-19T04:17:31.748Z,100989.16
2023-06-19T04:19:58.254Z,100992.78
2023-06-19T04:22:24.823Z,100995.59
2023-06-19T04:24:51.405Z,100994.44
2023-06-19T04:27:17.926Z,100998.38
2023-06-19T04:29:45.127Z,101000.19
2023-06-19T04:32:12.664Z,101010.25
2023-06-19T04:34:40.167Z,101014.41
2023-06-19T04:37:06.830Z,101017.06
2023-06-19T04:39:33.498Z,101037.00
2023-06-19T04:42:00.510Z,101037.41
2023-06-19T04:44:26.997Z,101036.16
2023-06-19T04:47:02.648Z,101035.63
2023-06-19T04:49:31.403Z,101039.63
2023-06-19T04:51:58.670Z,101040.63
2023-06-19T04:54:26.158Z,101048.00
2023-06-19T04:56:53.552Z,101049.97
2023-06-19T04:59:20.172Z,101053.88
2023-06-19T05:01:47.101Z,101046.75
2023-06-19T05:04:13.795Z,101048.31
2023-06-19T05:06:40.455Z,101048.00
2023-06-19T05:09:07.332Z,101053.84
2023-06-19T05:11:33.863Z,101052.59
2023-06-19T05:14:00.486Z,101051.47
2023-06-19T05:16:27.117Z,101059.16
2023-06-19T05:18:53.662Z,101060.00
2023-06-19T05:21:20.501Z,101068.75
2023-06-19T05:23:52.151Z,101063.59
2023-06-19T05:26:18.714Z,101072.66
2023-06-19T05:28:45.177Z,101076.69
2023-06-19T05:31:11.678Z,101069.56
2023-06-19T05:33:38.216Z,101076.84
2023-06-19T05:36:05.023Z,101075.72
2023-06-19T05:38:31.984Z,101081.88
2023-06-19T05:40:59.428Z,101081.44
2023-06-19T05:43:26.023Z,101083.25
2023-06-19T05:45:54.114Z,101094.38
2023-06-19T05:48:20.861Z,101093.41
2023-06-19T05:50:47.359Z,101091.19
2023-06-19T05:53:15.752Z,101098.16
2023-06-19T05:55:42.492Z,101090.63
2023-06-19T05:58:10.324Z,101101.22
2023-06-19T06:00:36.893Z,101100.78
2023-06-19T06:03:03.709Z,101099.81
2023-06-19T06:05:30.313Z,101101.91
2023-06-19T06:07:57.040Z,101101.06
2023-06-19T06:10:25.459Z,101114.03
2023-06-19T06:12:52.420Z,101112.47
2023-06-19T06:15:19.073Z,101118.75
2023-06-19T06:17:45.637Z,101125.44
2023-06-19T06:20:21.314Z,101126.16
2023-06-19T06:22:47.942Z,101130.88
2023-06-19T06:25:14.487Z,101131.31
2023-06-19T06:27:41.625Z,101143.97
2023-06-19T06:30:08.605Z,101150.78
2023-06-19T06:32:35.319Z,101155.81
2023-06-19T06:35:02.225Z,101154.81
2023-06-19T06:37:28.736Z,101150.19
2023-06-19T06:39:55.241Z,101146.56
2023-06-19T06:42:21.744Z,101157.25
2023-06-19T06:44:48.406Z,101159.91
2023-06-19T06:47:14.956Z,101153.63
2023-06-19T06:49:41.427Z,101165.09
2023-06-19T06:52:08.235Z,101167.88
2023-06-19T06:54:34.748Z,101169.53
2023-06-19T06:57:01.398Z,101179.00
2023-06-19T06:59:28.470Z,101176.53
2023-06-19T07:01:58.221Z,101175.25
2023-06-19T07:04:24.749Z,101182.47
2023-06-19T07:06:51.756Z,101180.81
2023-06-19T07:09:18.975Z,101189.75
2023-06-19T07:11:45.708Z,101194.88
2023-06-19T07:14:12.214Z,101206.84
2023-06-19T07:16:38.710Z,101212.69
2023-06-19T07:19:05.313Z,101199.44
2023-06-19T07:21:32.384Z,101204.75
2023-06-19T07:24:00.109Z,101214.66
2023-06-19T07:26:27.182Z,101218.53
2023-06-19T07:28:53.717Z,101212.50
2023-06-19T07:31:20.250Z,101228.97
2023-06-19T07:33:46.764Z,101223.13
2023-06-19T07:36:15.211Z,101229.28
2023-06-19T07:38:42.952Z,101229.69
2023-06-19T07:41:11.032Z,101239.34
2023-06-19T07:43:38.542Z,101231.50
2023-06-19T07:46:05.699Z,101223.81
2023-06-19T07:48:32.522Z,101237.91
2023-06-19T07:50:59.062Z,101238.59
2023-06-19T07:53:26.360Z,101249.06
2023-06-19T07:55:53.059Z,101251.84
2023-06-19T07:58:19.537Z,101248.97
2023-06-19T08:00:46.076Z,101255.81
2023-06-19T08:03:12.904Z,101257.59
2023-06-19T08:05:39.674Z,101263.00
2023-06-19T08:08:06.178Z,101267.88
2023-06-19T08:10:33.152Z,101266.19
2023-06-19T08:12:59.948Z,101260.69
2023-06-19T08:15:26.448Z,101263.59
2023-06-19T08:17:53.087Z,101255.69
2023-06-19T08:20:21.033Z,101263.66
2023-06-19T08:22:47.540Z,101265.31
2023-06-19T08:25:14.114Z,101268.28
2023-06-19T08:27:40.653Z,101271.59
2023-06-19T08:30:08.063Z,101270.38
2023-06-19T08:32:35.921Z,101269.78
2023-06-19T08:35:03.271Z,101273.13
2023-06-19T08:37:30.161Z,101270.91
2023-06-19T08:39:57.298Z,101273.66
2023-06-19T08:42:24.284Z,101290.19
2023-06-19T08:44:50.936Z,101284.81
2023-06-19T08:47:17.755Z,101291.66
2023-06-19T08:49:44.722Z,101297.50
2023-06-19T08:52:11.303Z,101306.91
2023-06-19T08:54:45.297Z,101303.19
2023-06-19T08:57:13.462Z,101306.38
2023-06-19T08:59:40.264Z,101307.81
2023-06-19T09:02:07.528Z,101312.91
2023-06-19T09:04:34.880Z,101308.75
2023-06-19T09:07:05.585Z,101304.94
2023-06-19T09:09:33.975Z,101313.31
2023-06-19T09:12:01.797Z,101315.72
2023-06-19T09:14:42.915Z,101320.97
2023-06-19T09:17:12.850Z,101316.00
2023-06-19T09:19:41.168Z,101322.78
2023-06-19T09:22:09.213Z,101331.13
2023-06-19T09:24:37.847Z,101320.63
2023-06-19T09:27:14.556Z,101333.03
2023-06-19T09:29:45.422Z,101326.66
2023-06-19T09:32:21.759Z,101329.84
2023-06-19T09:34:51.991Z,101331.50
2023-06-19T09:37:26.782Z,101341.69
2023-06-19T09:39:58.367Z,101338.19
2023-06-19T09:42:31.386Z,101351.03
2023-06-19T09:45:05.242Z,101344.72
2023-06-19T09:47:38.357Z,101355.16
2023-06-19T09:50:07.211Z,101346.69
2023-06-19T09:52:34.967Z,101352.75
2023-06-19T09:55:06.370Z,101359.97
2023-06-19T09:57:34.716Z,101369.16
2023-06-19T10:00:16.742Z,101363.63
2023-06-19T10:02:46.040Z,101374.81
2023-06-19T10:05:16.048Z,101374.22
2023-06-19T10:07:44.810Z,101381.78
2023-06-19T10:10:23.653Z,101369.72
2023-06-19T10:12:50.506Z,101364.28
2023-06-19T10:15:16.986Z,101362.75
2023-06-19T10:17:49.126Z,101372.13
2023-06-19T10:20:33.034Z,101363.34
2023-06-19T10:23:19.811Z,101365.63
2023-06-19T10:25:58.834Z,101370.78
2023-06-19T10:28:34.790Z,101359.91
2023-06-19T10:31:09.594Z,101366.81
2023-06-19T10:33:38.098Z,101375.13
2023-06-19T10:36:19.999Z,101368.88
2023-06-19T10:38:50.519Z,101363.16
2023-06-19T10:41:18.403Z,101358.84
2023-06-19T10:43:55.096Z,101376.81
2023-06-19T10:46:23.088Z,101370.66
2023-06-19T10:48:50.678Z,101367.03
2023-06-19T10:51:20.782Z,101352.03
2023-06-19T10:53:47.276Z,101350.38
2023-06-19T10:56:13.765Z,101347.75
2023-06-19T10:58:40.211Z,101362.41
2023-06-19T11:01:06.907Z,101359.38
2023-06-19T11:03:33.580Z,101358.69
2023-06-19T11:06:00.207Z,101361.38
2023-06-19T11:08:27.194Z,101365.69
2023-06-19T11:10:53.732Z,101362.03
2023-06-19T11:13:21.186Z,101359.72
2023-06-19T11:15:51.570Z,101353.06
2023-06-19T11:18:20.312Z,101356.56
2023-06-19T11:20:52.100Z,101356.91
2023-06-19T11:23:30.788Z,101357.38
2023-06-19T11:26:05.202Z,101354.88
2023-06-19T11:28:31.900Z,101353.38
2023-06-19T11:31:03.938Z,101356.91
2023-06-19T11:33:31.432Z,101362.09
2023-06-19T11:36:01.442Z,101349.91
2023-06-19T11:38:28.499Z,101354.03
2023-06-19T11:40:57.366Z,101355.81
2023-06-19T11:43:31.864Z,101360.34
2023-06-19T11:46:06.596Z,101365.69
2023-06-19T11:48:33.679Z,101367.31
2023-06-19T11:51:00.172Z,101363.34
2023-06-19T11:53:26.760Z,101375.84
2023-06-19T11:55:53.520Z,101367.84
2023-06-19T11:58:22.890Z,101359.66
2023-06-19T12:00:49.913Z,101365.66
2023-06-19T12:03:16.920Z,101364.81
2023-06-19T12:05:44.598Z,101354.03
2023-06-19T12:08:11.162Z,101359.78
2023-06-19T12:10:37.775Z,101362.00
2023-06-19T12:13:04.294Z,101356.72
2023-06-19T12:15:30.931Z,101374.03
2023-06-19T12:17:59.542Z,101372.41
2023-06-19T12:20:26.700Z,101373.63
2023-06-19T12:22:53.570Z,101362.94
2023-06-19T12:25:22.535Z,101369.19
2023-06-19T12:27:53.313Z,101367.25
2023-06-19T12:30:21.814Z,101362.94
2023-06-19T12:32:50.698Z,101365.59
2023-06-19T12:35:17.686Z,101360.25
2023-06-19T12:37:44.246Z,101360.47
2023-06-19T12:40:11.983Z,101363.22
2023-06-19T12:42:38.794Z,101368.97
2023-06-19T12:45:05.967Z,101382.47
2023-06-19T12:47:33.363Z,101369.66
2023-06-19T12:49:59.880Z,101372.41
2023-06-19T12:52:26.364Z,101373.09
2023-06-19T12:54:52.836Z,101374.59
2023-06-19T12:57:19.390Z,101368.09
2023-06-19T12:59:45.987Z,101369.94
2023-06-19T13:02:15.183Z,101368.25
2023-06-19T13:04:43.384Z,101376.88
2023-06-19T13:07:10.024Z,101375.06
2023-06-19T13:09:37.018Z,101367.88
2023-06-19T13:12:03.838Z,101376.69
2023-06-19T13:14:30.448Z,101366.97
2023-06-19T13:16:58.543Z,101363.59
2023-06-19T13:19:26.005Z,101358.16
2023-06-19T13:21:52.933Z,101368.78
2023-06-19T13:24:19.483Z,101354.59
2023-06-19T13:26:46.287Z,101357.25
2023-06-19T13:29:14.346Z,101350.72
2023-06-19T13:31:40.901Z,101346.03
2023-06-19T13:34:07.440Z,101352.19
2023-06-19T13:36:33.978Z,101351.25
2023-06-19T13:39:00.484Z,101349.03
2023-06-19T13:41:28.890Z,101356.97
2023-06-19T13:43:55.368Z,101347.75
2023-06-19T13:46:25.021Z,101349.78
2023-06-19T13:48:52.799Z,101351.22
2023-06-19T13:51:21.298Z,101336.91
2023-06-19T13:53:48.970Z,101337.22
2023-06-19T13:56:16.797Z,101340.72
2023-06-19T13:58:43.360Z,101335.16
2023-06-19T14:01:10.388Z,101344.06
2023-06-19T14:03:39.918Z,101340.25
2023-06-19T14:06:06.885Z,101332.94
2023-06-19T14:08:33.964Z,101332.59
2023-06-19T14:11:00.616Z,101327.72
2023-06-19T14:13:27.172Z,101334.28
2023-06-19T14:15:54.534Z,101326.78
2023-06-19T14:18:21.121Z,101334.38
2023-06-19T14:20:47.580Z,101335.84
2023-06-19T14:23:14.130Z,101331.06
2023-06-19T14:25:44.314Z,101329.88
2023-06-19T14:28:11.655Z,101339.66
2023-06-19T14:30:38.168Z,101325.53
2023-06-19T14:33:04.702Z,101335.50
2023-06-19T14:35:31.400Z,101333.34
2023-06-19T14:37:58.281Z,101333.31
2023-06-19T14:40:25.045Z,101330.63
2023-06-19T14:42:51.903Z,101333.50
2023-06-19T14:45:18.474Z,101329.34
2023-06-19T14:47:45.137Z,101328.31
2023-06-19T14:50:11.774Z,101325.72
2023-06-19T14:52:38.383Z,101326.09
2023-06-19T14:55:05.223Z,101334.50
2023-06-19T14:57:31.889Z,101329.22
2023-06-19T14:59:58.376Z,101328.50
2023-06-19T15:02:24.908Z,101317.09
2023-06-19T15:05:05.075Z,101318.81
2023-06-19T15:07:33.689Z,101320.94
2023-06-19T15:10:00.270Z,101318.63
2023-06-19T15:12:26.818Z,101309.22
2023-06-19T15:14:53.339Z,101304.81
2023-06-19T15:17:19.807Z,101303.44
2023-06-19T15:19:46.342Z,101305.03
2023-06-19T15:22:12.922Z,101310.34
2023-06-19T15:24:39.579Z,101304.31
2023-06-19T15:27:06.390Z,101304.84
2023-06-19T15:29:32.941Z,101312.81
2023-06-19T15:31:59.467Z,101306.56
2023-06-19T15:34:25.971Z,101311.28
2023-06-19T15:36:52.461Z,101310.72
2023-06-19T15:39:19.368Z,101306.25
2023-06-19T15:41:48.372Z,101305.44
2023-06-19T15:44:15.910Z,101304.13
2023-06-19T15:46:42.529Z,101295.81
2023-06-19T15:49:11.599Z,101302.69
2023-06-19T15:51:38.252Z,101302.28
2023-06-19T15:54:04.796Z,101297.56
2023-06-19T15:56:31.972Z,101306.28
2023-06-19T15:58:58.444Z,101303.28
2023-06-19T16:01:25.312Z,101298.16
2023-06-19T16:03:52.285Z,101294.75
2023-06-19T16:06:47.738Z,101293.84
2023-06-19T16:09:16.526Z,101294.88
2023-06-19T16:11:44.358Z,101298.59
2023-06-19T16:14:12.173Z,101288.78
2023-06-19T16:16:38.864Z,101291.06
2023-06-19T16:19:05.555Z,101289.16
2023-06-19T16:21:31.978Z,101289.50
2023-06-19T16:23:58.717Z,101286.00
2023-06-19T16:26:25.409Z,101292.72
2023-06-19T16:28:54.717Z,101291.97
2023-06-19T16:31:21.355Z,101290.78
2023-06-19T16:33:51.196Z,101288.22
2023-06-19T16:36:18.093Z,101288.00
2023-06-19T16:38:44.863Z,101286.78
2023-06-19T16:41:11.549Z,101289.97
2023-06-19T16:43:38.000Z,101291.16
2023-06-19T16:46:04.628Z,101299.34
2023-06-19T16:48:35.114Z,101299.78
2023-06-19T16:51:02.827Z,101297.09
2023-06-19T16:53:29.404Z,101297.25
2023-06-19T16:55:57.426Z,101299.56
2023-06-19T16:58:24.230Z,101292.63
2023-06-19T17:00:52.298Z,101293.34
2023-06-19T17:03:22.662Z,101293.94
2023-06-19T17:05:49.772Z,101292.09
2023-06-19T17:08:17.317Z,101292.75
2023-06-19T17:10:43.928Z,101299.38
2023-06-19T17:13:10.539Z,101298.13
2023-06-19T17:15:37.303Z,101286.41
2023-06-19T17:18:05.327Z,101286.38
2023-06-19T17:20:35.131Z,101286.97
2023-06-19T17:23:01.709Z,101286.13
2023-06-19T17:25:29.469Z,101279.50
2023-06-19T17:27:56.970Z,101286.97
2023-06-19T17:30:24.122Z,101282.00
2023-06-19T17:32:52.257Z,101276.59
2023-06-19T17:35:22.804Z,101276.63
2023-06-19T17:37:53.659Z,101278.31
2023-06-19T17:40:21.985Z,101278.25
2023-06-19T17:42:49.059Z,101276.31
2023-06-19T17:45:15.731Z,101275.16
2023-06-19T17:47:43.195Z,101277.66
2023-06-19T17:50:12.988Z,101282.72
2023-06-19T17:52:40.220Z,101275.06
2023-06-19T17:55:10.492Z,101276.88
2023-06-19T17:57:38.010Z,101277.66
2023-06-19T18:00:05.820Z,101273.50
2023-06-19T18:02:35.511Z,101281.56
2023-06-19T18:05:02.119Z,101281.78
2023-06-19T18:07:28.756Z,101288.47
2023-06-19T18:09:56.524Z,101280.25
2023-06-19T18:12:23.475Z,101280.16
2023-06-19T18:14:50.120Z,101284.31
2023-06-19T18:17:16.813Z,101289.59
2023-06-19T18:19:43.544Z,101290.81
2023-06-19T18:22:11.072Z,101290.66
2023-06-19T18:24:37.762Z,101289.44
2023-06-19T18:27:04.563Z,101299.13
2023-06-19T18:29:31.856Z,101296.22
2023-06-19T18:31:59.163Z,101302.63
2023-06-19T18:34:27.475Z,101297.91
2023-06-19T18:36:54.461Z,101295.69
2023-06-19T18:39:21.070Z,101293.19
2023-06-19T18:41:47.677Z,101297.97
2023-06-19T18:44:14.397Z,101300.38
2023-06-19T18:46:41.899Z,101312.50
2023-06-19T18:49:08.503Z,101303.38
2023-06-19T18:51:35.100Z,101309.44
2023-06-19T18:54:01.732Z,101307.38
2023-06-19T18:56:31.561Z,101299.28
2023-06-19T18:58:58.223Z,101299.00
2023-06-19T19:01:24.946Z,101310.41
2023-06-19T19:03:51.459Z,101307.25
2023-06-19T19:06:18.757Z,101315.44
2023-06-19T19:08:45.582Z,101309.44
2023-06-19T19:11:12.130Z,101319.16
2023-06-19T19:13:38.622Z,101318.97
2023-06-19T19:16:05.361Z,101317.13
2023-06-19T19:18:32.336Z,101322.19
2023-06-19T19:20:58.966Z,101318.22
2023-06-19T19:23:25.577Z,101325.78
2023-06-19T19:25:52.098Z,101324.28
2023-06-19T19:28:18.623Z,101322.50
2023-06-19T19:30:47.774Z,101328.19
2023-06-19T19:33:14.448Z,101334.19
2023-06-19T19:35:41.108Z,101333.88
2023-06-19T19:38:07.650Z,101332.06
2023-06-19T19:40:37.001Z,101328.41
2023-06-19T19:43:03.718Z,101337.72
2023-06-19T19:45:30.311Z,101333.06
2023-06-19T19:47:56.862Z,101340.72
2023-06-19T19:50:23.745Z,101340.53
2023-06-19T19:52:50.479Z,101336.72
2023-06-19T19:55:17.029Z,101345.53
2023-06-19T19:57:43.514Z,101347.69
2023-06-19T20:00:10.597Z,101344.03
2023-06-19T20:02:37.329Z,101356.53
2023-06-19T20:05:05.464Z,101353.03
2023-06-19T20:07:32.109Z,101356.50
2023-06-19T20:09:58.712Z,101369.19
2023-06-19T20:12:27.058Z,101365.16
2023-06-19T20:14:55.040Z,101363.31
2023-06-19T20:17:21.518Z,101363.94
2023-06-19T20:19:48.026Z,101367.44
2023-06-19T20:22:14.560Z,101364.09
2023-06-19T20:24:42.434Z,101372.53
2023-06-19T20:27:11.204Z,101377.84
2023-06-19T20:29:38.582Z,101365.31
2023-06-19T20:32:05.659Z,101369.09
2023-06-19T20:34:32.123Z,101371.44
2023-06-19T20:37:00.064Z,101369.06
2023-06-19T20:39:26.578Z,101375.38
2023-06-19T20:41:53.032Z,101369.41
2023-06-19T20:44:19.609Z,101373.50
2023-06-19T20:46:46.133Z,101362.19
2023-06-19T20:49:12.712Z,101368.69
2023-06-19T20:51:39.180Z,101370.81
2023-06-19T20:54:05.802Z,101371.44
2023-06-19T20:56:32.321Z,101370.09
2023-06-19T20:58:58.804Z,101373.91
2023-06-19T21:01:25.961Z,101382.19
2023-06-19T21:03:53.055Z,101395.59
2023-06-19T21:06:21.414Z,101396.78
2023-06-19T21:08:49.444Z,101398.59
2023-06-19T21:11:17.303Z,101390.75
2023-06-19T21:13:43.921Z,101389.94
2023-06-19T21:16:11.888Z,101391.91
2023-06-19T21:18:38.460Z,101387.75
2023-06-19T21:21:05.000Z,101383.72
2023-06-19T21:23:31.529Z,101370.28
2023-06-19T21:25:57.964Z,101389.88
2023-06-19T21:28:24.592Z,101383.88
2023-06-19T21:30:51.067Z,101388.69
2023-06-19T21:33:18.327Z,101384.66
2023-06-19T21:35:44.855Z,101384.78
2023-06-19T21:38:13.039Z,101384.13
2023-06-19T21:40:39.581Z,101379.97
2023-06-19T21:43:06.075Z,101383.22
2023-06-19T21:45:32.584Z,101371.06
2023-06-19T21:47:59.160Z,101377.38
2023-06-19T21:50:25.888Z,101377.53
2023-06-19T21:52:53.277Z,101372.38
2023-06-19T21:55:20.190Z,101376.16
2023-06-19T21:57:59.491Z,101375.63
2023-06-19T22:00:27.809Z,101368.97
2023-06-19T22:02:55.470Z,101371.09
2023-06-19T22:05:23.138Z,101377.41
2023-06-19T22:07:49.860Z,101377.00
2023-06-19T22:10:16.315Z,101364.72
2023-06-19T22:12:42.866Z,101360.72
2023-06-19T22:15:09.540Z,101356.66
2023-06-19T22:17:36.464Z,101357.50
2023-06-19T22:20:04.399Z,101364.81
2023-06-19T22:22:30.891Z,101355.28
2023-06-19T22:24:57.463Z,101352.78
2023-06-19T22:27:23.947Z,101344.13
2023-06-19T22:29:50.429Z,101354.22
2023-06-19T22:32:19.956Z,101346.84
2023-06-19T22:34:46.495Z,101349.13
2023-06-19T22:37:12.962Z,101355.41
2023-06-19T22:39:39.926Z,101349.44
2023-06-19T22:42:06.781Z,101350.56
2023-06-19T22:44:33.348Z,101344.19
2023-06-19T22:47:00.006Z,101344.31
2023-06-19T22:49:30.302Z,101346.16
2023-06-19T22:51:58.076Z,101355.94
2023-06-19T22:54:25.291Z,101341.81
2023-06-19T22:56:51.864Z,101349.09
2023-06-19T22:59:18.356Z,101343.25
2023-06-19T23:01:44.829Z,101350.56
2023-06-19T23:04:11.413Z,101337.56
2023-06-19T23:06:44.183Z,101335.03
2023-06-19T23:09:11.818Z,101339.53
2023-06-19T23:11:39.110Z,101337.16
2023-06-19T23:14:06.160Z,101328.81
2023-06-19T23:16:32.941Z,101333.28
2023-06-19T23:19:01.198Z,101337.09
2023-06-19T23:21:31.243Z,101335.56
2023-06-19T23:23:58.784Z,101333.91
2023-06-19T23:26:25.393Z,101329.72
2023-06-19T23:28:52.762Z,101327.34
2023-06-19T23:31:22.551Z,101327.66
2023-06-19T23:33:53.349Z,101318.97
2023-06-19T23:36:19.903Z,101328.63
2023-06-19T23:38:48.852Z,101330.59
2023-06-19T23:41:16.263Z,101333.41
2023-06-19T23:43:42.677Z,101329.19
2023-06-19T23:46:09.580Z,101325.84
2023-06-19T23:48:36.117Z,101327.00
2023-06-19T23:51:02.983Z,101328.13
2023-06-19T23:53:29.458Z,101331.59
2023-06-19T23:55:56.124Z,101319.44
2023-06-19T23:58:23.109Z,101323.78
